sensor_id;sensor_type;location;lat;lon;timestamp;P1;durP1;ratioP1;P2;durP2;ratioP2
22363;SDS011;11349;53.412;-1.328;2022-12-29T00:02:25;10.23;;;1.98;;
22363;SDS011;11349;53.412;-1.328;2022-12-29T00:04:51;11.90;;;2.33;;
22363;SDS011;11349;53.412;-1.328;2022-12-29T00:07:17;8.45;;;1.58;;
22363;SDS011;11349;53.412;-1.328;2022-12-29T00:09:43;6.53;;;1.73;;
22363;SDS011;11349;53.412;-1.328;2022-12-29T00:12:09;7.47;;;1.55;;
22363;SDS011;11349;53.412;-1.328;2022-12-29T00:14:35;7.72;;;1.42;;
22363;SDS011;11349;53.412;-1.328;2022-12-29T00:17:19;9.77;;;1.90;;
22363;SDS011;11349;53.412;-1.328;2022-12-29T00:19:45;10.38;;;1.98;;
22363;SDS011;11349;53.412;-1.328;2022-12-29T00:22:30;8.13;;;1.70;;
22363;SDS011;11349;53.412;-1.328;2022-12-29T00:25:14;8.35;;;1.92;;
22363;SDS011;11349;53.412;-1.328;2022-12-29T00:27:59;8.45;;;1.77;;
22363;SDS011;11349;53.412;-1.328;2022-12-29T00:30:43;8.07;;;1.52;;
22363;SDS011;11349;53.412;-1.328;2022-12-29T00:33:28;7.90;;;2.20;;
22363;SDS011;11349;53.412;-1.328;2022-12-29T00:38:45;5.93;;;1.52;;
22363;SDS011;11349;53.412;-1.328;2022-12-29T00:41:33;9.98;;;1.60;;
22363;SDS011;11349;53.412;-1.328;2022-12-29T00:44:17;7.07;;;1.50;;
22363;SDS011;11349;53.412;-1.328;2022-12-29T00:46:43;9.73;;;1.75;;
22363;SDS011;11349;53.412;-1.328;2022-12-29T00:49:10;9.43;;;2.10;;
22363;SDS011;11349;53.412;-1.328;2022-12-29T00:51:56;7.18;;;1.80;;
22363;SDS011;11349;53.412;-1.328;2022-12-29T00:54:27;8.13;;;1.63;;
22363;SDS011;11349;53.412;-1.328;2022-12-29T00:56:54;9.48;;;1.83;;
22363;SDS011;11349;53.412;-1.328;2022-12-29T00:59:20;5.72;;;1.25;;
22363;SDS011;11349;53.412;-1.328;2022-12-29T01:01:47;7.35;;;1.92;;
22363;SDS011;11349;53.412;-1.328;2022-12-29T01:04:13;8.35;;;1.70;;
22363;SDS011;11349;53.412;-1.328;2022-12-29T01:06:39;7.10;;;1.45;;
22363;SDS011;11349;53.412;-1.328;2022-12-29T01:09:06;9.13;;;1.55;;
22363;SDS011;11349;53.412;-1.328;2022-12-29T01:11:51;11.18;;;2.00;;
22363;SDS011;11349;53.412;-1.328;2022-12-29T01:14:17;7.45;;;1.63;;
22363;SDS011;11349;53.412;-1.328;2022-12-29T01:16:44;7.82;;;1.65;;
22363;SDS011;11349;53.412;-1.328;2022-12-29T01:19:10;11.02;;;2.20;;
22363;SDS011;11349;53.412;-1.328;2022-12-29T01:21:36;7.43;;;1.83;;
22363;SDS011;11349;53.412;-1.328;2022-12-29T01:24:02;5.82;;;1.52;;
22363;SDS011;11349;53.412;-1.328;2022-12-29T01:26:28;9.25;;;2.00;;
22363;SDS011;11349;53.412;-1.328;2022-12-29T01:28:53;7.32;;;1.73;;
22363;SDS011;11349;53.412;-1.328;2022-12-29T01:31:19;8.68;;;1.45;;
22363;SDS011;11349;53.412;-1.328;2022-12-29T01:33:45;6.05;;;1.65;;
22363;SDS011;11349;53.412;-1.328;2022-12-29T01:36:12;6.32;;;1.52;;
22363;SDS011;11349;53.412;-1.328;2022-12-29T01:38:40;8.98;;;1.83;;
22363;SDS011;11349;53.412;-1.328;2022-12-29T01:41:07;8.93;;;1.63;;
22363;SDS011;11349;53.412;-1.328;2022-12-29T01:43:44;9.38;;;1.30;;
22363;SDS011;11349;53.412;-1.328;2022-12-29T01:46:16;7.95;;;1.75;;
22363;SDS011;11349;53.412;-1.328;2022-12-29T01:48:50;10.13;;;1.70;;
22363;SDS011;11349;53.412;-1.328;2022-12-29T01:51:29;7.28;;;1.48;;
22363;SDS011;11349;53.412;-1.328;2022-12-29T01:53:58;5.05;;;1.10;;
22363;SDS011;11349;53.412;-1.328;2022-12-29T01:56:29;6.38;;;1.35;;
22363;SDS011;11349;53.412;-1.328;2022-12-29T01:58:57;6.82;;;1.58;;
22363;SDS011;11349;53.412;-1.328;2022-12-29T02:01:27;8.25;;;2.03;;
22363;SDS011;11349;53.412;-1.328;2022-12-29T02:03:52;7.57;;;1.42;;
22363;SDS011;11349;53.412;-1.328;2022-12-29T02:08:49;8.77;;;1.73;;
22363;SDS011;11349;53.412;-1.328;2022-12-29T02:11:17;6.60;;;1.52;;
22363;SDS011;11349;53.412;-1.328;2022-12-29T02:13:43;8.15;;;1.92;;
22363;SDS011;11349;53.412;-1.328;2022-12-29T02:16:13;6.22;;;1.60;;
22363;SDS011;11349;53.412;-1.328;2022-12-29T02:24:37;4.28;;;1.48;;
22363;SDS011;11349;53.412;-1.328;2022-12-29T02:32:54;2.40;;;0.30;;
22363;SDS011;11349;53.412;-1.328;2022-12-29T02:35:48;3.30;;;0.22;;
22363;SDS011;11349;53.412;-1.328;2022-12-29T02:40:48;0.28;;;0.10;;
22363;SDS011;11349;53.412;-1.328;2022-12-29T02:46:28;0.93;;;0.10;;
22363;SDS011;11349;53.412;-1.328;2022-12-29T02:49:04;1.13;;;0.43;;
22363;SDS011;11349;53.412;-1.328;2022-12-29T02:51:50;0.40;;;0.15;;
22363;SDS011;11349;53.412;-1.328;2022-12-29T02:54:23;0.63;;;0.10;;
22363;SDS011;11349;53.412;-1.328;2022-12-29T02:59:45;1.88;;;0.20;;
22363;SDS011;11349;53.412;-1.328;2022-12-29T03:15:46;0.75;;;0.30;;
22363;SDS011;11349;53.412;-1.328;2022-12-29T03:24:28;2.30;;;0.30;;
22363;SDS011;11349;53.412;-1.328;2022-12-29T03:26:59;2.08;;;0.45;;
22363;SDS011;11349;53.412;-1.328;2022-12-29T03:29:30;1.10;;;0.60;;
22363;SDS011;11349;53.412;-1.328;2022-12-29T03:31:58;2.40;;;0.50;;
22363;SDS011;11349;53.412;-1.328;2022-12-29T03:34:26;1.25;;;0.52;;
22363;SDS011;11349;53.412;-1.328;2022-12-29T03:37:04;1.27;;;0.47;;
22363;SDS011;11349;53.412;-1.328;2022-12-29T03:39:36;1.50;;;0.40;;
22363;SDS011;11349;53.412;-1.328;2022-12-29T03:42:03;2.97;;;0.52;;
22363;SDS011;11349;53.412;-1.328;2022-12-29T03:44:34;1.73;;;0.47;;
22363;SDS011;11349;53.412;-1.328;2022-12-29T03:47:01;2.65;;;0.75;;
22363;SDS011;11349;53.412;-1.328;2022-12-29T03:49:27;1.27;;;0.73;;
22363;SDS011;11349;53.412;-1.328;2022-12-29T03:51:53;2.45;;;0.35;;
22363;SDS011;11349;53.412;-1.328;2022-12-29T03:54:19;2.83;;;0.70;;
22363;SDS011;11349;53.412;-1.328;2022-12-29T03:56:45;2.75;;;0.70;;
22363;SDS011;11349;53.412;-1.328;2022-12-29T03:59:10;3.25;;;0.50;;
22363;SDS011;11349;53.412;-1.328;2022-12-29T04:01:36;2.13;;;0.40;;
22363;SDS011;11349;53.412;-1.328;2022-12-29T04:04:02;2.35;;;0.50;;
22363;SDS011;11349;53.412;-1.328;2022-12-29T04:06:27;3.47;;;0.70;;
22363;SDS011;11349;53.412;-1.328;2022-12-29T04:08:53;1.60;;;0.45;;
22363;SDS011;11349;53.412;-1.328;2022-12-29T04:11:19;3.50;;;0.77;;
22363;SDS011;11349;53.412;-1.328;2022-12-29T04:13:45;4.28;;;0.60;;
22363;SDS011;11349;53.412;-1.328;2022-12-29T04:16:11;3.38;;;0.68;;
22363;SDS011;11349;53.412;-1.328;2022-12-29T04:18:37;4.00;;;0.70;;
22363;SDS011;11349;53.412;-1.328;2022-12-29T04:21:03;2.58;;;0.70;;
22363;SDS011;11349;53.412;-1.328;2022-12-29T04:23:30;2.47;;;0.50;;
22363;SDS011;11349;53.412;-1.328;2022-12-29T04:25:57;15.43;;;2.67;;
22363;SDS011;11349;53.412;-1.328;2022-12-29T04:28:23;3.42;;;0.60;;
22363;SDS011;11349;53.412;-1.328;2022-12-29T04:30:49;5.70;;;1.00;;
22363;SDS011;11349;53.412;-1.328;2022-12-29T04:33:15;1.90;;;0.60;;
22363;SDS011;11349;53.412;-1.328;2022-12-29T04:35:41;3.97;;;0.80;;
22363;SDS011;11349;53.412;-1.328;2022-12-29T04:38:08;4.47;;;1.02;;
22363;SDS011;11349;53.412;-1.328;2022-12-29T04:40:34;4.78;;;0.80;;
22363;SDS011;11349;53.412;-1.328;2022-12-29T04:43:00;2.13;;;0.60;;
22363;SDS011;11349;53.412;-1.328;2022-12-29T04:45:26;2.78;;;0.63;;
22363;SDS011;11349;53.412;-1.328;2022-12-29T04:47:51;1.20;;;0.50;;
22363;SDS011;11349;53.412;-1.328;2022-12-29T04:50:17;1.60;;;0.60;;
22363;SDS011;11349;53.412;-1.328;2022-12-29T04:52:43;3.03;;;0.65;;
22363;SDS011;11349;53.412;-1.328;2022-12-29T04:55:08;1.55;;;0.55;;
22363;SDS011;11349;53.412;-1.328;2022-12-29T04:57:34;3.03;;;0.73;;
22363;SDS011;11349;53.412;-1.328;2022-12-29T05:00:00;2.95;;;0.80;;
22363;SDS011;11349;53.412;-1.328;2022-12-29T05:02:26;7.28;;;1.13;;
22363;SDS011;11349;53.412;-1.328;2022-12-29T05:04:52;1.27;;;0.70;;
22363;SDS011;11349;53.412;-1.328;2022-12-29T05:07:18;3.40;;;0.90;;
22363;SDS011;11349;53.412;-1.328;2022-12-29T05:09:43;3.75;;;1.25;;
22363;SDS011;11349;53.412;-1.328;2022-12-29T05:12:09;4.80;;;1.00;;
22363;SDS011;11349;53.412;-1.328;2022-12-29T05:14:35;3.45;;;1.13;;
22363;SDS011;11349;53.412;-1.328;2022-12-29T05:17:01;3.97;;;1.17;;
22363;SDS011;11349;53.412;-1.328;2022-12-29T05:19:26;4.03;;;0.80;;
22363;SDS011;11349;53.412;-1.328;2022-12-29T05:21:52;3.35;;;1.25;;
22363;SDS011;11349;53.412;-1.328;2022-12-29T05:24:19;7.03;;;1.33;;
22363;SDS011;11349;53.412;-1.328;2022-12-29T05:26:45;5.32;;;1.23;;
22363;SDS011;11349;53.412;-1.328;2022-12-29T05:29:11;3.40;;;1.38;;
22363;SDS011;11349;53.412;-1.328;2022-12-29T05:31:36;5.88;;;1.40;;
22363;SDS011;11349;53.412;-1.328;2022-12-29T05:34:02;3.70;;;1.42;;
22363;SDS011;11349;53.412;-1.328;2022-12-29T05:36:28;4.90;;;1.20;;
22363;SDS011;11349;53.412;-1.328;2022-12-29T05:38:54;3.63;;;1.20;;
22363;SDS011;11349;53.412;-1.328;2022-12-29T05:41:19;3.78;;;1.73;;
22363;SDS011;11349;53.412;-1.328;2022-12-29T05:43:45;5.95;;;1.30;;
22363;SDS011;11349;53.412;-1.328;2022-12-29T05:46:11;2.97;;;1.08;;
22363;SDS011;11349;53.412;-1.328;2022-12-29T05:48:37;4.07;;;1.00;;
22363;SDS011;11349;53.412;-1.328;2022-12-29T05:51:02;5.03;;;1.05;;
22363;SDS011;11349;53.412;-1.328;2022-12-29T05:53:28;3.13;;;0.80;;
22363;SDS011;11349;53.412;-1.328;2022-12-29T05:55:54;5.32;;;0.80;;
22363;SDS011;11349;53.412;-1.328;2022-12-29T05:58:20;6.32;;;2.25;;
22363;SDS011;11349;53.412;-1.328;2022-12-29T06:00:46;6.32;;;1.05;;
22363;SDS011;11349;53.412;-1.328;2022-12-29T06:03:12;8.43;;;1.00;;
22363;SDS011;11349;53.412;-1.328;2022-12-29T06:05:37;2.78;;;0.77;;
22363;SDS011;11349;53.412;-1.328;2022-12-29T06:08:03;4.15;;;1.25;;
22363;SDS011;11349;53.412;-1.328;2022-12-29T06:10:29;4.72;;;1.30;;
22363;SDS011;11349;53.412;-1.328;2022-12-29T06:12:55;4.57;;;0.80;;
22363;SDS011;11349;53.412;-1.328;2022-12-29T06:15:20;3.95;;;0.70;;
22363;SDS011;11349;53.412;-1.328;2022-12-29T06:17:46;5.00;;;0.80;;
22363;SDS011;11349;53.412;-1.328;2022-12-29T06:20:12;3.85;;;0.80;;
22363;SDS011;11349;53.412;-1.328;2022-12-29T06:22:37;5.10;;;1.00;;
22363;SDS011;11349;53.412;-1.328;2022-12-29T06:25:04;4.18;;;0.80;;
22363;SDS011;11349;53.412;-1.328;2022-12-29T06:27:30;2.38;;;0.60;;
22363;SDS011;11349;53.412;-1.328;2022-12-29T06:29:56;5.65;;;0.85;;
22363;SDS011;11349;53.412;-1.328;2022-12-29T06:32:22;4.03;;;0.80;;
22363;SDS011;11349;53.412;-1.328;2022-12-29T06:34:47;5.40;;;0.90;;
22363;SDS011;11349;53.412;-1.328;2022-12-29T06:37:13;6.18;;;0.93;;
22363;SDS011;11349;53.412;-1.328;2022-12-29T06:39:39;3.30;;;0.70;;
22363;SDS011;11349;53.412;-1.328;2022-12-29T06:42:05;3.20;;;0.70;;
22363;SDS011;11349;53.412;-1.328;2022-12-29T06:44:31;4.80;;;0.90;;
22363;SDS011;11349;53.412;-1.328;2022-12-29T06:46:57;2.72;;;0.70;;
22363;SDS011;11349;53.412;-1.328;2022-12-29T06:49:23;4.70;;;1.77;;
22363;SDS011;11349;53.412;-1.328;2022-12-29T06:51:48;4.15;;;0.70;;
22363;SDS011;11349;53.412;-1.328;2022-12-29T06:54:14;2.78;;;0.70;;
22363;SDS011;11349;53.412;-1.328;2022-12-29T06:56:40;4.88;;;1.02;;
22363;SDS011;11349;53.412;-1.328;2022-12-29T06:59:06;4.07;;;0.38;;
22363;SDS011;11349;53.412;-1.328;2022-12-29T07:01:32;3.30;;;0.70;;
22363;SDS011;11349;53.412;-1.328;2022-12-29T07:03:58;2.75;;;0.50;;
22363;SDS011;11349;53.412;-1.328;2022-12-29T07:06:23;6.65;;;0.98;;
22363;SDS011;11349;53.412;-1.328;2022-12-29T07:08:49;2.95;;;0.60;;
22363;SDS011;11349;53.412;-1.328;2022-12-29T07:11:15;6.00;;;0.73;;
22363;SDS011;11349;53.412;-1.328;2022-12-29T07:13:40;2.28;;;0.75;;
22363;SDS011;11349;53.412;-1.328;2022-12-29T07:16:07;3.47;;;0.57;;
22363;SDS011;11349;53.412;-1.328;2022-12-29T07:18:33;2.88;;;0.70;;
22363;SDS011;11349;53.412;-1.328;2022-12-29T07:20:59;5.75;;;0.70;;
22363;SDS011;11349;53.412;-1.328;2022-12-29T07:23:25;2.95;;;0.73;;
22363;SDS011;11349;53.412;-1.328;2022-12-29T07:26:13;4.55;;;0.60;;
22363;SDS011;11349;53.412;-1.328;2022-12-29T07:28:38;2.35;;;0.60;;
22363;SDS011;11349;53.412;-1.328;2022-12-29T07:31:05;2.17;;;0.68;;
22363;SDS011;11349;53.412;-1.328;2022-12-29T07:33:31;3.40;;;0.70;;
22363;SDS011;11349;53.412;-1.328;2022-12-29T07:35:58;4.05;;;0.70;;
22363;SDS011;11349;53.412;-1.328;2022-12-29T07:38:24;5.20;;;1.00;;
22363;SDS011;11349;53.412;-1.328;2022-12-29T07:40:50;7.88;;;1.42;;
22363;SDS011;11349;53.412;-1.328;2022-12-29T07:43:15;4.57;;;0.70;;
22363;SDS011;11349;53.412;-1.328;2022-12-29T07:45:41;6.20;;;1.10;;
22363;SDS011;11349;53.412;-1.328;2022-12-29T07:48:07;2.70;;;0.70;;
22363;SDS011;11349;53.412;-1.328;2022-12-29T07:50:36;4.50;;;0.82;;
22363;SDS011;11349;53.412;-1.328;2022-12-29T07:53:02;4.55;;;0.80;;
22363;SDS011;11349;53.412;-1.328;2022-12-29T07:55:28;4.32;;;1.23;;
22363;SDS011;11349;53.412;-1.328;2022-12-29T07:57:54;5.53;;;0.88;;
22363;SDS011;11349;53.412;-1.328;2022-12-29T08:00:20;6.90;;;0.73;;
22363;SDS011;11349;53.412;-1.328;2022-12-29T08:02:47;4.90;;;0.85;;
22363;SDS011;11349;53.412;-1.328;2022-12-29T08:05:12;2.72;;;0.88;;
22363;SDS011;11349;53.412;-1.328;2022-12-29T08:07:38;4.07;;;0.77;;
22363;SDS011;11349;53.412;-1.328;2022-12-29T08:10:04;3.70;;;0.88;;
22363;SDS011;11349;53.412;-1.328;2022-12-29T08:12:30;5.07;;;0.63;;
22363;SDS011;11349;53.412;-1.328;2022-12-29T08:14:56;3.67;;;0.85;;
22363;SDS011;11349;53.412;-1.328;2022-12-29T08:17:22;5.72;;;1.05;;
22363;SDS011;11349;53.412;-1.328;2022-12-29T08:19:47;4.00;;;0.70;;
22363;SDS011;11349;53.412;-1.328;2022-12-29T08:22:14;6.32;;;1.60;;
22363;SDS011;11349;53.412;-1.328;2022-12-29T08:24:40;3.58;;;0.88;;
22363;SDS011;11349;53.412;-1.328;2022-12-29T08:27:06;5.53;;;1.00;;
22363;SDS011;11349;53.412;-1.328;2022-12-29T08:29:31;4.28;;;0.90;;
22363;SDS011;11349;53.412;-1.328;2022-12-29T08:31:57;2.50;;;0.70;;
22363;SDS011;11349;53.412;-1.328;2022-12-29T08:34:23;4.05;;;0.82;;
22363;SDS011;11349;53.412;-1.328;2022-12-29T08:36:48;2.15;;;0.52;;
22363;SDS011;11349;53.412;-1.328;2022-12-29T08:39:14;4.95;;;0.73;;
22363;SDS011;11349;53.412;-1.328;2022-12-29T08:41:40;2.72;;;0.68;;
22363;SDS011;11349;53.412;-1.328;2022-12-29T08:44:06;3.10;;;0.70;;
22363;SDS011;11349;53.412;-1.328;2022-12-29T08:46:32;4.90;;;1.00;;
22363;SDS011;11349;53.412;-1.328;2022-12-29T08:48:58;5.00;;;0.57;;
22363;SDS011;11349;53.412;-1.328;2022-12-29T08:51:23;3.53;;;0.80;;
22363;SDS011;11349;53.412;-1.328;2022-12-29T08:53:49;4.60;;;0.70;;
22363;SDS011;11349;53.412;-1.328;2022-12-29T08:56:15;6.30;;;0.98;;
22363;SDS011;11349;53.412;-1.328;2022-12-29T08:58:41;3.05;;;0.88;;
22363;SDS011;11349;53.412;-1.328;2022-12-29T09:01:07;3.22;;;0.73;;
22363;SDS011;11349;53.412;-1.328;2022-12-29T09:03:34;4.47;;;0.70;;
22363;SDS011;11349;53.412;-1.328;2022-12-29T09:05:59;7.07;;;1.35;;
22363;SDS011;11349;53.412;-1.328;2022-12-29T09:08:25;5.43;;;0.95;;
22363;SDS011;11349;53.412;-1.328;2022-12-29T09:10:51;5.25;;;0.80;;
22363;SDS011;11349;53.412;-1.328;2022-12-29T09:13:17;3.97;;;0.80;;
22363;SDS011;11349;53.412;-1.328;2022-12-29T09:15:43;3.17;;;0.70;;
22363;SDS011;11349;53.412;-1.328;2022-12-29T09:18:09;4.32;;;1.02;;
22363;SDS011;11349;53.412;-1.328;2022-12-29T09:20:36;4.80;;;0.90;;
22363;SDS011;11349;53.412;-1.328;2022-12-29T09:23:03;5.10;;;0.82;;
22363;SDS011;11349;53.412;-1.328;2022-12-29T09:25:29;2.72;;;0.80;;
22363;SDS011;11349;53.412;-1.328;2022-12-29T09:27:55;3.05;;;0.80;;
22363;SDS011;11349;53.412;-1.328;2022-12-29T09:30:21;3.90;;;0.70;;
22363;SDS011;11349;53.412;-1.328;2022-12-29T09:32:48;4.38;;;1.55;;
22363;SDS011;11349;53.412;-1.328;2022-12-29T09:35:14;2.20;;;0.70;;
22363;SDS011;11349;53.412;-1.328;2022-12-29T09:37:41;5.18;;;0.85;;
22363;SDS011;11349;53.412;-1.328;2022-12-29T09:40:15;2.53;;;1.00;;
22363;SDS011;11349;53.412;-1.328;2022-12-29T09:45:29;6.22;;;2.10;;
22363;SDS011;11349;53.412;-1.328;2022-12-29T09:47:59;5.28;;;1.65;;
22363;SDS011;11349;53.412;-1.328;2022-12-29T09:50:29;4.10;;;1.30;;
22363;SDS011;11349;53.412;-1.328;2022-12-29T09:55:45;5.55;;;1.30;;
22363;SDS011;11349;53.412;-1.328;2022-12-29T09:58:19;5.22;;;0.90;;
22363;SDS011;11349;53.412;-1.328;2022-12-29T10:03:40;8.43;;;1.60;;
22363;SDS011;11349;53.412;-1.328;2022-12-29T10:06:22;10.70;;;1.75;;
22363;SDS011;11349;53.412;-1.328;2022-12-29T10:25:58;10.48;;;2.22;;
22363;SDS011;11349;53.412;-1.328;2022-12-29T10:30:56;8.63;;;2.05;;
22363;SDS011;11349;53.412;-1.328;2022-12-29T10:33:26;10.32;;;2.92;;
22363;SDS011;11349;53.412;-1.328;2022-12-29T10:35:57;11.00;;;2.33;;
22363;SDS011;11349;53.412;-1.328;2022-12-29T10:38:28;6.10;;;1.52;;
22363;SDS011;11349;53.412;-1.328;2022-12-29T10:43:43;7.32;;;1.83;;
22363;SDS011;11349;53.412;-1.328;2022-12-29T10:46:19;8.57;;;1.92;;
22363;SDS011;11349;53.412;-1.328;2022-12-29T10:48:49;6.43;;;1.40;;
22363;SDS011;11349;53.412;-1.328;2022-12-29T10:51:24;7.47;;;1.60;;
22363;SDS011;11349;53.412;-1.328;2022-12-29T10:54:12;5.50;;;1.20;;
22363;SDS011;11349;53.412;-1.328;2022-12-29T10:59:25;10.10;;;1.42;;
22363;SDS011;11349;53.412;-1.328;2022-12-29T11:07:32;7.15;;;1.40;;
22363;SDS011;11349;53.412;-1.328;2022-12-29T11:10:17;11.27;;;1.52;;
22363;SDS011;11349;53.412;-1.328;2022-12-29T11:12:59;9.65;;;1.83;;
22363;SDS011;11349;53.412;-1.328;2022-12-29T11:15:43;5.97;;;1.45;;
22363;SDS011;11349;53.412;-1.328;2022-12-29T11:18:32;11.65;;;1.40;;
22363;SDS011;11349;53.412;-1.328;2022-12-29T11:21:03;11.45;;;1.60;;
22363;SDS011;11349;53.412;-1.328;2022-12-29T11:23:40;7.30;;;1.70;;
22363;SDS011;11349;53.412;-1.328;2022-12-29T11:28:38;7.10;;;1.50;;
22363;SDS011;11349;53.412;-1.328;2022-12-29T11:31:06;11.15;;;1.65;;
22363;SDS011;11349;53.412;-1.328;2022-12-29T11:33:34;7.32;;;1.67;;
22363;SDS011;11349;53.412;-1.328;2022-12-29T11:36:02;9.35;;;1.75;;
22363;SDS011;11349;53.412;-1.328;2022-12-29T11:38:39;7.03;;;1.60;;
22363;SDS011;11349;53.412;-1.328;2022-12-29T11:41:10;8.45;;;1.67;;
22363;SDS011;11349;53.412;-1.328;2022-12-29T11:43:42;10.93;;;2.08;;
22363;SDS011;11349;53.412;-1.328;2022-12-29T11:46:44;8.23;;;1.67;;
22363;SDS011;11349;53.412;-1.328;2022-12-29T11:49:03;8.50;;;1.70;;
22363;SDS011;11349;53.412;-1.328;2022-12-29T11:51:39;8.45;;;1.70;;
22363;SDS011;11349;53.412;-1.328;2022-12-29T11:54:12;7.20;;;1.75;;
22363;SDS011;11349;53.412;-1.328;2022-12-29T11:56:46;11.48;;;1.92;;
22363;SDS011;11349;53.412;-1.328;2022-12-29T12:01:59;9.15;;;1.70;;
22363;SDS011;11349;53.412;-1.328;2022-12-29T12:04:34;12.15;;;1.83;;
22363;SDS011;11349;53.412;-1.328;2022-12-29T12:07:12;8.45;;;2.05;;
22363;SDS011;11349;53.412;-1.328;2022-12-29T12:09:45;5.45;;;1.88;;
22363;SDS011;11349;53.412;-1.328;2022-12-29T12:12:27;9.55;;;2.03;;
22363;SDS011;11349;53.412;-1.328;2022-12-29T12:14:58;11.65;;;1.73;;
22363;SDS011;11349;53.412;-1.328;2022-12-29T12:17:33;9.57;;;2.15;;
22363;SDS011;11349;53.412;-1.328;2022-12-29T12:20:16;10.00;;;2.28;;
22363;SDS011;11349;53.412;-1.328;2022-12-29T12:25:54;11.18;;;2.20;;
22363;SDS011;11349;53.412;-1.328;2022-12-29T12:28:40;7.00;;;1.80;;
22363;SDS011;11349;53.412;-1.328;2022-12-29T12:33:57;9.43;;;2.22;;
22363;SDS011;11349;53.412;-1.328;2022-12-29T12:36:31;10.35;;;2.13;;
22363;SDS011;11349;53.412;-1.328;2022-12-29T12:39:23;7.88;;;1.98;;
22363;SDS011;11349;53.412;-1.328;2022-12-29T12:45:16;11.65;;;2.30;;
22363;SDS011;11349;53.412;-1.328;2022-12-29T12:59:35;7.93;;;1.80;;
22363;SDS011;11349;53.412;-1.328;2022-12-29T13:02:37;5.85;;;1.75;;
22363;SDS011;11349;53.412;-1.328;2022-12-29T13:18:31;9.75;;;1.73;;
22363;SDS011;11349;53.412;-1.328;2022-12-29T13:21:06;12.30;;;1.85;;
22363;SDS011;11349;53.412;-1.328;2022-12-29T13:24:01;11.20;;;3.15;;
22363;SDS011;11349;53.412;-1.328;2022-12-29T13:26:30;11.57;;;2.17;;
22363;SDS011;11349;53.412;-1.328;2022-12-29T13:29:13;8.35;;;1.63;;
22363;SDS011;11349;53.412;-1.328;2022-12-29T13:32:01;7.82;;;1.67;;
22363;SDS011;11349;53.412;-1.328;2022-12-29T13:37:18;7.20;;;1.60;;
22363;SDS011;11349;53.412;-1.328;2022-12-29T13:40:04;5.75;;;1.38;;
22363;SDS011;11349;53.412;-1.328;2022-12-29T13:42:38;7.55;;;1.60;;
22363;SDS011;11349;53.412;-1.328;2022-12-29T13:45:06;11.93;;;2.83;;
22363;SDS011;11349;53.412;-1.328;2022-12-29T13:47:40;8.15;;;1.83;;
22363;SDS011;11349;53.412;-1.328;2022-12-29T13:50:18;6.07;;;1.88;;
22363;SDS011;11349;53.412;-1.328;2022-12-29T14:01:00;8.23;;;1.63;;
22363;SDS011;11349;53.412;-1.328;2022-12-29T14:03:53;10.25;;;2.90;;
22363;SDS011;11349;53.412;-1.328;2022-12-29T14:06:22;6.95;;;1.58;;
22363;SDS011;11349;53.412;-1.328;2022-12-29T14:11:57;7.82;;;2.55;;
22363;SDS011;11349;53.412;-1.328;2022-12-29T14:14:24;7.45;;;1.58;;
22363;SDS011;11349;53.412;-1.328;2022-12-29T14:16:53;9.25;;;1.67;;
22363;SDS011;11349;53.412;-1.328;2022-12-29T14:19:23;9.85;;;1.35;;
22363;SDS011;11349;53.412;-1.328;2022-12-29T14:21:55;10.40;;;1.92;;
22363;SDS011;11349;53.412;-1.328;2022-12-29T14:34:50;8.68;;;2.00;;
22363;SDS011;11349;53.412;-1.328;2022-12-29T14:37:24;10.85;;;1.58;;
22363;SDS011;11349;53.412;-1.328;2022-12-29T14:42:57;7.00;;;1.20;;
22363;SDS011;11349;53.412;-1.328;2022-12-29T14:45:27;8.10;;;1.50;;
22363;SDS011;11349;53.412;-1.328;2022-12-29T14:47:55;6.68;;;1.67;;
22363;SDS011;11349;53.412;-1.328;2022-12-29T14:50:25;7.72;;;1.50;;
22363;SDS011;11349;53.412;-1.328;2022-12-29T14:53:04;7.43;;;1.45;;
22363;SDS011;11349;53.412;-1.328;2022-12-29T14:55:41;5.22;;;1.02;;
22363;SDS011;11349;53.412;-1.328;2022-12-29T14:58:31;5.25;;;1.30;;
22363;SDS011;11349;53.412;-1.328;2022-12-29T15:01:04;7.95;;;1.42;;
22363;SDS011;11349;53.412;-1.328;2022-12-29T15:03:50;9.38;;;1.88;;
22363;SDS011;11349;53.412;-1.328;2022-12-29T15:06:28;8.75;;;1.50;;
22363;SDS011;11349;53.412;-1.328;2022-12-29T15:09:03;6.82;;;1.45;;
22363;SDS011;11349;53.412;-1.328;2022-12-29T15:14:00;7.03;;;1.52;;
22363;SDS011;11349;53.412;-1.328;2022-12-29T15:16:29;6.97;;;1.55;;
22363;SDS011;11349;53.412;-1.328;2022-12-29T15:18:56;7.20;;;1.60;;
22363;SDS011;11349;53.412;-1.328;2022-12-29T15:21:24;6.72;;;1.33;;
22363;SDS011;11349;53.412;-1.328;2022-12-29T15:23:58;9.15;;;1.73;;
22363;SDS011;11349;53.412;-1.328;2022-12-29T15:26:36;14.82;;;2.17;;
22363;SDS011;11349;53.412;-1.328;2022-12-29T15:29:04;8.02;;;1.70;;
22363;SDS011;11349;53.412;-1.328;2022-12-29T15:31:30;6.47;;;1.90;;
22363;SDS011;11349;53.412;-1.328;2022-12-29T15:34:02;6.95;;;1.58;;
22363;SDS011;11349;53.412;-1.328;2022-12-29T15:36:38;8.93;;;1.92;;
22363;SDS011;11349;53.412;-1.328;2022-12-29T15:39:17;7.20;;;1.40;;
22363;SDS011;11349;53.412;-1.328;2022-12-29T15:41:55;5.18;;;1.45;;
22363;SDS011;11349;53.412;-1.328;2022-12-29T15:49:42;8.25;;;1.65;;
22363;SDS011;11349;53.412;-1.328;2022-12-29T15:52:21;10.23;;;1.70;;
22363;SDS011;11349;53.412;-1.328;2022-12-29T15:54:48;3.95;;;0.90;;
22363;SDS011;11349;53.412;-1.328;2022-12-29T15:57:23;6.63;;;1.45;;
22363;SDS011;11349;53.412;-1.328;2022-12-29T15:59:51;12.48;;;3.22;;
22363;SDS011;11349;53.412;-1.328;2022-12-29T16:02:17;7.03;;;1.48;;
22363;SDS011;11349;53.412;-1.328;2022-12-29T16:04:43;9.25;;;2.05;;
22363;SDS011;11349;53.412;-1.328;2022-12-29T16:07:22;6.00;;;1.50;;
22363;SDS011;11349;53.412;-1.328;2022-12-29T16:09:58;7.05;;;1.55;;
22363;SDS011;11349;53.412;-1.328;2022-12-29T16:12:32;7.97;;;1.48;;
22363;SDS011;11349;53.412;-1.328;2022-12-29T16:15:01;12.02;;;2.55;;
22363;SDS011;11349;53.412;-1.328;2022-12-29T16:17:34;10.30;;;2.13;;
22363;SDS011;11349;53.412;-1.328;2022-12-29T16:23:09;9.77;;;2.75;;
22363;SDS011;11349;53.412;-1.328;2022-12-29T16:25:47;7.60;;;1.80;;
22363;SDS011;11349;53.412;-1.328;2022-12-29T16:28:15;12.00;;;1.98;;
22363;SDS011;11349;53.412;-1.328;2022-12-29T16:30:45;7.15;;;1.65;;
22363;SDS011;11349;53.412;-1.328;2022-12-29T16:36:21;7.97;;;1.83;;
22363;SDS011;11349;53.412;-1.328;2022-12-29T16:38:48;7.75;;;1.88;;
22363;SDS011;11349;53.412;-1.328;2022-12-29T16:41:28;8.57;;;1.80;;
22363;SDS011;11349;53.412;-1.328;2022-12-29T16:47:28;8.70;;;1.83;;
22363;SDS011;11349;53.412;-1.328;2022-12-29T16:49:35;9.00;;;2.13;;
22363;SDS011;11349;53.412;-1.328;2022-12-29T16:52:13;12.45;;;2.78;;
22363;SDS011;11349;53.412;-1.328;2022-12-29T16:54:49;8.73;;;1.88;;
22363;SDS011;11349;53.412;-1.328;2022-12-29T16:57:26;7.97;;;2.00;;
22363;SDS011;11349;53.412;-1.328;2022-12-29T16:59:55;8.32;;;2.65;;
22363;SDS011;11349;53.412;-1.328;2022-12-29T17:02:25;10.30;;;1.67;;
22363;SDS011;11349;53.412;-1.328;2022-12-29T17:04:52;9.25;;;2.20;;
22363;SDS011;11349;53.412;-1.328;2022-12-29T17:07:19;6.07;;;1.63;;
22363;SDS011;11349;53.412;-1.328;2022-12-29T17:09:46;8.77;;;1.70;;
22363;SDS011;11349;53.412;-1.328;2022-12-29T17:12:16;8.52;;;1.92;;
22363;SDS011;11349;53.412;-1.328;2022-12-29T17:14:44;6.63;;;1.77;;
22363;SDS011;11349;53.412;-1.328;2022-12-29T17:17:26;8.07;;;1.77;;
22363;SDS011;11349;53.412;-1.328;2022-12-29T17:22:43;7.20;;;1.83;;
22363;SDS011;11349;53.412;-1.328;2022-12-29T17:25:13;9.13;;;1.90;;
22363;SDS011;11349;53.412;-1.328;2022-12-29T17:27:44;7.47;;;2.28;;
22363;SDS011;11349;53.412;-1.328;2022-12-29T17:30:32;8.55;;;1.77;;
22363;SDS011;11349;53.412;-1.328;2022-12-29T17:33:00;5.75;;;1.60;;
22363;SDS011;11349;53.412;-1.328;2022-12-29T17:35:28;9.35;;;2.00;;
22363;SDS011;11349;53.412;-1.328;2022-12-29T17:37:54;9.73;;;2.28;;
22363;SDS011;11349;53.412;-1.328;2022-12-29T17:40:21;4.15;;;1.33;;
22363;SDS011;11349;53.412;-1.328;2022-12-29T17:42:51;7.85;;;1.90;;